Time;durP1;ratioP1;P1;durP2;ratioP2;P2;SDS_P1;SDS_P2;PMS_P1;PMS_P2;Temp;Humidity;BMP_temperature;BMP_pressure;BME280_temperature;BME280_humidity;BME280_pressure;Samples;Min_cycle;Max_cycle;Signal;HPM_P1;HPM_P2
2023/08/14 10:50:15;;;;;;;5.93;1.80;;;;;;;;;;5069244;27;20448;-69
2023/08/14 10:52:45;;;;;;;8.82;1.95;;;;;;;;;;5028224;28;20184;-68
2023/08/14 10:55:17;;;;;;;10.80;1.63;;;;;;;;;;5017491;28;20084;-67
2023/08/14 10:57:45;;;;;;;5.38;1.55;;;;;;;;;;5034019;28;20089;-68
2023/08/14 11:00:22;;;;;;;8.65;2.00;;;;;;;;;;5031386;28;20095;-68
2023/08/14 11:03:08;;;;;;;6.60;2.00;;;;;;;;;;5034969;28;20132;-70
2023/08/14 11:05:38;;;;;;;6.80;1.95;;;;;;;;;;5052638;28;20299;-68
2023/08/14 11:08:09;;;;;;;3.42;1.38;;;;;;;;;;5030034;28;20041;-69
2023/08/14 11:10:36;;;;;;;8.63;1.83;;;;;;;;;;5016128;28;21200;-69
2023/08/14 11:13:06;;;;;;;6.47;1.75;;;;;;;;;;5036566;28;20072;-70
2023/08/14 11:15:34;;;;;;;8.02;1.58;;;;;;;;;;5034792;28;20053;-69
2023/08/14 11:18:15;;;;;;;6.57;1.65;;;;;;;;;;5038588;28;20046;-72
2023/08/14 11:20:45;;;;;;;6.40;1.70;;;;;;;;;;5033827;28;20063;-69
2023/08/14 11:23:14;;;;;;;9.63;1.45;;;;;;;;;;5041506;28;20161;-68
2023/08/14 11:25:44;;;;;;;4.95;1.45;;;;;;;;;;5037850;28;20053;-69
2023/08/14 11:28:13;;;;;;;7.30;1.67;;;;;;;;;;5039347;28;20049;-69
2023/08/14 11:33:27;;;;;;;13.27;3.63;;;;;;;;;;5037472;28;20095;-71
2023/08/14 11:36:08;;;;;;;12.27;2.75;;;;;;;;;;5039914;28;20053;-70
2023/08/14 11:38:35;;;;;;;4.53;1.35;;;;;;;;;;4995881;28;20050;-70
2023/08/14 11:41:05;;;;;;;6.88;1.73;;;;;;;;;;5048325;28;20061;-71
2023/08/14 11:43:32;;;;;;;11.98;1.67;;;;;;;;;;5035628;28;20061;-71
2023/08/14 11:46:02;;;;;;;8.00;1.50;;;;;;;;;;5031649;28;20145;-69
2023/08/14 11:48:30;;;;;;;12.90;2.03;;;;;;;;;;5001514;28;20049;-69
2023/08/14 11:51:01;;;;;;;3.85;1.65;;;;;;;;;;5032281;28;20068;-69
2023/08/14 11:53:28;;;;;;;5.25;2.28;;;;;;;;;;5017608;28;20129;-70
2023/08/14 11:55:55;;;;;;;4.25;1.95;;;;;;;;;;5017796;28;20165;-68
2023/08/14 11:58:22;;;;;;;5.38;1.38;;;;;;;;;;5013516;28;20058;-69
2023/08/14 12:00:50;;;;;;;4.85;1.30;;;;;;;;;;5019438;28;20128;-71
2023/08/14 12:03:17;;;;;;;5.63;1.40;;;;;;;;;;5021449;28;20049;-70
2023/08/14 12:05:45;;;;;;;14.30;1.27;;;;;;;;;;5020193;28;20050;-68
2023/08/14 12:08:14;;;;;;;7.15;1.40;;;;;;;;;;5019075;28;20099;-72
2023/08/14 12:10:41;;;;;;;3.28;1.05;;;;;;;;;;5027139;28;20076;-69
2023/08/14 12:13:08;;;;;;;5.65;1.60;;;;;;;;;;5023492;28;20061;-69
2023/08/14 12:15:35;;;;;;;4.88;1.38;;;;;;;;;;5024582;28;20068;-73
2023/08/14 12:18:02;;;;;;;7.53;1.23;;;;;;;;;;5021381;28;20056;-69
2023/08/14 12:20:33;;;;;;;5.50;1.50;;;;;;;;;;5008238;28;20144;-72
2023/08/14 12:23:15;;;;;;;6.07;1.25;;;;;;;;;;5022272;28;20073;-74
2023/08/14 12:25:43;;;;;;;6.43;1.55;;;;;;;;;;5002668;28;20104;-70
2023/08/14 12:28:12;;;;;;;6.97;1.70;;;;;;;;;;5011173;28;20046;-72
2023/08/14 12:30:46;;;;;;;4.85;1.23;;;;;;;;;;4996028;28;20060;-69
2023/08/14 12:33:14;;;;;;;6.43;1.63;;;;;;;;;;5023953;28;20060;-72
2023/08/14 12:35:43;;;;;;;7.28;2.03;;;;;;;;;;5019518;28;20053;-70
2023/08/14 12:38:14;;;;;;;8.13;2.28;;;;;;;;;;5029260;28;20049;-70
2023/08/14 12:40:41;;;;;;;8.85;2.00;;;;;;;;;;5036701;28;20052;-72
2023/08/14 12:43:09;;;;;;;8.90;1.60;;;;;;;;;;5026994;28;20054;-70
2023/08/14 12:45:39;;;;;;;5.32;1.38;;;;;;;;;;5020627;28;20094;-71
2023/08/14 12:48:06;;;;;;;4.82;1.40;;;;;;;;;;5018558;28;20099;-73
2023/08/14 12:50:33;;;;;;;5.10;1.70;;;;;;;;;;4968291;28;20140;-68
2023/08/14 12:53:03;;;;;;;2.83;1.15;;;;;;;;;;5004142;28;20062;-70
2023/08/14 12:55:30;;;;;;;4.05;1.30;;;;;;;;;;5004619;28;20065;-73
2023/08/14 12:57:56;;;;;;;7.40;1.23;;;;;;;;;;5021002;28;20068;-72
2023/08/14 13:00:25;;;;;;;3.42;1.13;;;;;;;;;;5012168;28;20056;-71
2023/08/14 13:02:51;;;;;;;;;;;;;;;;;;5034613;28;20061;-72
2023/08/14 13:05:18;;;;;;;10.52;1.40;;;;;;;;;;5023340;28;19983;-72
2023/08/14 13:07:45;;;;;;;8.05;1.13;;;;;;;;;;5021504;28;20061;-70
2023/08/14 13:10:13;;;;;;;4.95;1.27;;;;;;;;;;5016641;28;20057;-69
2023/08/14 13:12:39;;;;;;;3.90;1.40;;;;;;;;;;4998097;28;22410;-70
2023/08/14 13:15:09;;;;;;;3.90;1.17;;;;;;;;;;5019424;28;20052;-71
2023/08/14 13:17:37;;;;;;;1.50;0.80;;;;;;;;;;5021528;28;20057;-73
2023/08/14 13:20:06;;;;;;;7.20;1.45;;;;;;;;;;4941710;28;20065;-73
2023/08/14 13:22:34;;;;;;;;;;;;;;;;;;4995058;28;20073;-71
2023/08/14 13:25:06;;;;;;;4.80;1.30;;;;;;;;;;5000033;28;19947;-69
2023/08/14 13:27:33;;;;;;;3.28;1.08;;;;;;;;;;5002517;28;20137;-72
2023/08/14 13:30:01;;;;;;;5.85;1.33;;;;;;;;;;4961497;28;20136;-71
2023/08/14 13:32:28;;;;;;;8.23;1.30;;;;;;;;;;4990387;28;20064;-70
2023/08/14 13:34:56;;;;;;;3.40;1.00;;;;;;;;;;5019619;28;20056;-69
2023/08/14 13:37:23;;;;;;;4.97;1.30;;;;;;;;;;5022632;28;20061;-71
2023/08/14 13:39:49;;;;;;;6.68;1.13;;;;;;;;;;4977896;28;20108;-74
2023/08/14 13:42:19;;;;;;;9.05;1.25;;;;;;;;;;5025269;28;20045;-72
2023/08/14 13:44:45;;;;;;;5.25;1.80;;;;;;;;;;5001575;28;20093;-70
2023/08/14 13:47:13;;;;;;;5.93;1.35;;;;;;;;;;5020135;28;20057;-71
2023/08/14 13:49:40;;;;;;;7.82;1.30;;;;;;;;;;5008235;28;20050;-71
2023/08/14 13:52:11;;;;;;;5.30;1.10;;;;;;;;;;5001790;28;20040;-69
2023/08/14 13:54:38;;;;;;;8.43;1.25;;;;;;;;;;5012678;28;20054;-70
2023/08/14 13:57:05;;;;;;;7.55;1.33;;;;;;;;;;5022558;28;20068;-71
2023/08/14 13:59:32;;;;;;;3.53;1.10;;;;;;;;;;4994943;28;20056;-70
2023/08/14 14:01:59;;;;;;;3.47;0.93;;;;;;;;;;5020494;28;20061;-69
2023/08/14 14:04:26;;;;;;;6.03;1.38;;;;;;;;;;5012812;28;20104;-70
2023/08/14 14:06:53;;;;;;;3.38;1.20;;;;;;;;;;5001516;28;20064;-72
2023/08/14 14:09:22;;;;;;;4.38;1.20;;;;;;;;;;5015051;28;20126;-69
2023/08/14 14:11:49;;;;;;;7.00;1.40;;;;;;;;;;5006872;28;20053;-70
2023/08/14 14:14:15;;;;;;;10.35;1.20;;;;;;;;;;4996244;28;20104;-71
2023/08/14 14:16:53;;;;;;;4.53;1.35;;;;;;;;;;5019455;28;20053;-69
2023/08/14 14:19:20;;;;;;;4.50;1.17;;;;;;;;;;4996491;28;20053;-72
2023/08/14 14:21:47;;;;;;;8.93;1.30;;;;;;;;;;5001461;28;20076;-69
2023/08/14 14:24:14;;;;;;;8.40;1.23;;;;;;;;;;4997546;28;20119;-69
2023/08/14 14:26:42;;;;;;;9.52;1.70;;;;;;;;;;5020321;28;20089;-72
2023/08/14 14:29:09;;;;;;;3.00;1.10;;;;;;;;;;4969011;28;20077;-72
2023/08/14 14:31:36;;;;;;;2.58;1.00;;;;;;;;;;5002619;28;20144;-69
2023/08/14 14:34:02;;;;;;;6.43;1.40;;;;;;;;;;5014443;28;20111;-69
2023/08/14 14:36:31;;;;;;;4.15;1.02;;;;;;;;;;4998800;28;20104;-70
2023/08/14 14:38:58;;;;;;;4.18;1.10;;;;;;;;;;5018657;28;20053;-70
2023/08/14 14:41:25;;;;;;;3.22;1.10;;;;;;;;;;5020331;28;20066;-70
2023/08/14 14:43:53;;;;;;;9.02;2.15;;;;;;;;;;5000064;28;20119;-69
2023/08/14 14:46:21;;;;;;;13.00;6.57;;;;;;;;;;5001954;28;20144;-72
2023/08/14 14:48:48;;;;;;;5.82;2.33;;;;;;;;;;5001512;28;20057;-69
2023/08/14 14:51:15;;;;;;;7.03;1.33;;;;;;;;;;5019166;28;20050;-71
2023/08/14 14:53:42;;;;;;;6.53;1.15;;;;;;;;;;5008198;28;20048;-69
2023/08/14 14:56:12;;;;;;;5.18;1.15;;;;;;;;;;5039433;28;20151;-71
2023/08/14 14:58:39;;;;;;;5.55;2.05;;;;;;;;;;5040236;28;20124;-70
2023/08/14 15:01:13;;;;;;;3.35;1.33;;;;;;;;;;4999170;28;20123;-71
2023/08/14 15:03:41;;;;;;;8.35;1.85;;;;;;;;;;5003497;28;20068;-71
2023/08/14 15:06:09;;;;;;;6.93;3.77;;;;;;;;;;5003882;28;20060;-72
2023/08/14 15:08:36;;;;;;;10.60;2.00;;;;;;;;;;5015202;28;20068;-69
2023/08/14 15:11:03;;;;;;;5.80;1.70;;;;;;;;;;4993229;28;20132;-71
2023/08/14 15:13:30;;;;;;;4.50;1.30;;;;;;;;;;5002083;28;20058;-72
2023/08/14 15:15:57;;;;;;;4.57;1.33;;;;;;;;;;5001505;28;20046;-70
2023/08/14 15:18:27;;;;;;;6.28;1.30;;;;;;;;;;4993660;28;20100;-74
2023/08/14 15:20:56;;;;;;;4.50;1.08;;;;;;;;;;4964886;28;20167;-73
2023/08/14 15:23:23;;;;;;;5.43;1.20;;;;;;;;;;5002145;28;20056;-71
2023/08/14 15:25:52;;;;;;;4.07;1.10;;;;;;;;;;5025182;28;20065;-70
2023/08/14 15:28:19;;;;;;;3.28;1.05;;;;;;;;;;4996617;28;20045;-74
2023/08/14 15:30:46;;;;;;;4.55;1.10;;;;;;;;;;4943503;28;20049;-73
2023/08/14 15:33:17;;;;;;;5.10;1.35;;;;;;;;;;4942074;28;20051;-73
2023/08/14 15:35:45;;;;;;;4.78;1.30;;;;;;;;;;5004153;28;20057;-72
2023/08/14 15:38:13;;;;;;;3.83;1.20;;;;;;;;;;5003033;28;20077;-72
2023/08/14 15:40:45;;;;;;;3.65;1.27;;;;;;;;;;4986200;28;20046;-68
2023/08/14 15:43:12;;;;;;;7.38;1.23;;;;;;;;;;5034022;28;20052;-71
2023/08/14 15:45:41;;;;;;;4.25;1.20;;;;;;;;;;5028496;28;20061;-70
2023/08/14 15:48:11;;;;;;;3.22;1.20;;;;;;;;;;5004642;28;20065;-71
2023/08/14 15:50:38;;;;;;;2.28;1.00;;;;;;;;;;4998241;28;20066;-70
2023/08/14 15:53:06;;;;;;;3.30;0.95;;;;;;;;;;5024077;28;20053;-70
2023/08/14 15:55:33;;;;;;;3.55;1.00;;;;;;;;;;5024885;28;20220;-73
2023/08/14 15:58:00;;;;;;;2.92;1.02;;;;;;;;;;5025677;28;20053;-72
2023/08/14 16:02:52;;;;;;;6.53;1.17;;;;;;;;;;4879266;28;20047;-70
2023/08/14 16:05:19;;;;;;;2.83;1.00;;;;;;;;;;4999417;28;20065;-71
2023/08/14 16:07:46;;;;;;;7.95;1.40;;;;;;;;;;5008788;28;20234;-71
2023/08/14 16:10:19;;;;;;;7.60;1.25;;;;;;;;;;5014071;28;20117;-71
2023/08/14 16:12:49;;;;;;;4.63;1.42;;;;;;;;;;5005597;28;20057;-73
2023/08/14 16:15:19;;;;;;;3.97;1.10;;;;;;;;;;5005974;28;20064;-69
2023/08/14 16:17:46;;;;;;;2.90;0.87;;;;;;;;;;5007598;28;20080;-73
2023/08/14 16:20:13;;;;;;;9.05;1.58;;;;;;;;;;5000748;28;20159;-72
2023/08/14 16:22:40;;;;;;;3.37;1.10;;;;;;;;;;5004242;28;20053;-72
2023/08/14 16:25:08;;;;;;;4.72;1.30;;;;;;;;;;5005193;28;20064;-69
2023/08/14 16:27:36;;;;;;;;;;;;;;;;;;5033121;28;20056;-73
2023/08/14 16:30:03;;;;;;;2.05;0.88;;;;;;;;;;5020635;28;19921;-72
2023/08/14 16:32:30;;;;;;;3.58;1.00;;;;;;;;;;5001532;28;20132;-72
2023/08/14 16:34:58;;;;;;;4.28;1.70;;;;;;;;;;5022960;28;20224;-70
2023/08/14 16:37:25;;;;;;;7.90;1.73;;;;;;;;;;5006645;28;20046;-72
2023/08/14 16:39:52;;;;;;;3.08;1.15;;;;;;;;;;4998198;28;20146;-73
2023/08/14 16:42:19;;;;;;;9.00;1.15;;;;;;;;;;5018535;28;20072;-69
2023/08/14 16:44:49;;;;;;;7.07;1.38;;;;;;;;;;5023386;28;20061;-70
2023/08/14 16:47:16;;;;;;;3.45;1.30;;;;;;;;;;5009271;28;20057;-69
2023/08/14 16:49:43;;;;;;;4.38;1.10;;;;;;;;;;5017725;28;20118;-71
2023/08/14 16:52:13;;;;;;;3.42;1.25;;;;;;;;;;5021635;28;20040;-71
2023/08/14 16:54:39;;;;;;;4.53;1.25;;;;;;;;;;5001498;28;20048;-73
2023/08/14 16:57:06;;;;;;;7.85;1.60;;;;;;;;;;5004406;28;20140;-70
2023/08/14 16:59:33;;;;;;;8.90;3.78;;;;;;;;;;4990023;28;20064;-72
2023/08/14 17:02:01;;;;;;;10.45;4.03;;;;;;;;;;5021606;28;20057;-72
2023/08/14 17:04:28;;;;;;;3.72;1.30;;;;;;;;;;4992995;28;20061;-73
2023/08/14 17:06:55;;;;;;;8.43;1.70;;;;;;;;;;5027016;28;20065;-72
2023/08/14 17:09:23;;;;;;;3.80;1.00;;;;;;;;;;5019466;28;20055;-71
2023/08/14 17:11:50;;;;;;;7.65;1.35;;;;;;;;;;5008263;28;20053;-69
2023/08/14 17:14:20;;;;;;;8.95;1.45;;;;;;;;;;5000024;28;20050;-71
2023/08/14 17:16:47;;;;;;;4.32;1.30;;;;;;;;;;5008445;28;20050;-72
2023/08/14 17:19:15;;;;;;;4.78;1.50;;;;;;;;;;5023741;28;20058;-71
2023/08/14 17:21:43;;;;;;;4.45;1.10;;;;;;;;;;4991483;28;20080;-71
2023/08/14 17:24:10;;;;;;;3.65;1.15;;;;;;;;;;5001790;28;20050;-70
2023/08/14 17:26:39;;;;;;;10.55;1.33;;;;;;;;;;5013721;28;20056;-68
2023/08/14 17:29:05;;;;;;;6.53;1.35;;;;;;;;;;4999048;28;20072;-71
2023/08/14 17:31:33;;;;;;;3.03;1.10;;;;;;;;;;5005200;28;20063;-68
2023/08/14 17:34:00;;;;;;;13.55;2.25;;;;;;;;;;5024193;28;20060;-72
2023/08/14 17:36:28;;;;;;;3.88;1.30;;;;;;;;;;5018623;28;20128;-72
2023/08/14 17:38:55;;;;;;;4.95;1.20;;;;;;;;;;5023032;28;20143;-73
2023/08/14 17:41:22;;;;;;;5.30;1.30;;;;;;;;;;5020236;28;20060;-71
2023/08/14 17:43:52;;;;;;;5.00;1.35;;;;;;;;;;5021054;28;20176;-70
2023/08/14 17:46:19;;;;;;;4.60;1.27;;;;;;;;;;5018605;28;20056;-73
2023/08/14 17:48:46;;;;;;;5.67;1.13;;;;;;;;;;5017790;28;20057;-71
2023/08/14 17:51:13;;;;;;;9.57;1.50;;;;;;;;;;5002217;28;20255;-74
2023/08/14 17:53:41;;;;;;;3.33;1.23;;;;;;;;;;5022578;28;20060;-73
2023/08/14 17:56:08;;;;;;;119.50;66.68;;;;;;;;;;4989401;28;20080;-74
2023/08/14 17:58:35;;;;;;;24.17;11.55;;;;;;;;;;5019283;28;20057;-70
2023/08/14 18:01:02;;;;;;;18.08;6.68;;;;;;;;;;5017152;28;20144;-68
2023/08/14 18:03:29;;;;;;;3.88;1.70;;;;;;;;;;5002058;28;20045;-74
2023/08/14 18:05:55;;;;;;;8.65;1.20;;;;;;;;;;5023038;28;20052;-74
2023/08/14 18:08:22;;;;;;;5.13;1.40;;;;;;;;;;4995742;28;20053;-70
2023/08/14 18:10:50;;;;;;;7.63;1.45;;;;;;;;;;5004771;28;20049;-68
2023/08/14 18:13:17;;;;;;;5.57;1.70;;;;;;;;;;5025793;28;20149;-70
2023/08/14 18:15:44;;;;;;;4.47;1.30;;;;;;;;;;5006630;28;20072;-72
2023/08/14 18:18:12;;;;;;;3.78;1.40;;;;;;;;;;5021925;28;20048;-71
2023/08/14 18:20:38;;;;;;;6.82;1.80;;;;;;;;;;4982526;28;20053;-72
2023/08/14 18:23:05;;;;;;;5.15;1.25;;;;;;;;;;5024802;28;20087;-73
2023/08/14 18:25:34;;;;;;;4.40;1.30;;;;;;;;;;5006207;28;20053;-72
2023/08/14 18:28:04;;;;;;;7.10;1.40;;;;;;;;;;5002556;28;20068;-72
2023/08/14 18:30:31;;;;;;;10.30;1.50;;;;;;;;;;5000164;28;20147;-70
2023/08/14 18:32:58;;;;;;;12.97;5.73;;;;;;;;;;5003190;28;20057;-73
2023/08/14 18:35:32;;;;;;;21.63;2.95;;;;;;;;;;5003254;28;20053;-70
2023/08/14 18:38:02;;;;;;;3.03;1.40;;;;;;;;;;5022692;28;20122;-69
2023/08/14 18:40:33;;;;;;;13.30;4.82;;;;;;;;;;5010669;28;20137;-71
2023/08/14 18:43:02;;;;;;;6.07;1.90;;;;;;;;;;5004351;28;20055;-73
2023/08/14 18:45:32;;;;;;;7.85;1.48;;;;;;;;;;5025278;28;20082;-69
2023/08/14 18:48:01;;;;;;;13.02;2.55;;;;;;;;;;5027150;28;20057;-69
2023/08/14 18:50:32;;;;;;;18.95;4.65;;;;;;;;;;5012370;28;20053;-71
2023/08/14 18:52:58;;;;;;;16.67;2.42;;;;;;;;;;5004391;28;20092;-70
2023/08/14 18:55:25;;;;;;;17.17;4.68;;;;;;;;;;5002300;28;20080;-70
2023/08/14 18:57:52;;;;;;;19.55;10.82;;;;;;;;;;5023055;28;20045;-70
2023/08/14 19:00:20;;;;;;;19.00;9.20;;;;;;;;;;5018973;28;20049;-71
2023/08/14 19:02:47;;;;;;;12.57;4.50;;;;;;;;;;5007254;28;20057;-70
2023/08/14 19:05:14;;;;;;;7.80;1.83;;;;;;;;;;4999075;28;20065;-71
2023/08/14 19:07:40;;;;;;;3.83;1.85;;;;;;;;;;5024010;28;20053;-67
2023/08/14 19:10:10;;;;;;;5.75;1.70;;;;;;;;;;5003244;28;20049;-68
2023/08/14 19:12:37;;;;;;;5.90;1.63;;;;;;;;;;5023271;28;20049;-70
2023/08/14 19:15:06;;;;;;;7.80;1.70;;;;;;;;;;5021257;28;20092;-69
2023/08/14 19:17:34;;;;;;;7.25;1.75;;;;;;;;;;5008804;28;20072;-68
2023/08/14 19:20:01;;;;;;;;;;;;;;;;;;4993749;28;20116;-69
2023/08/14 19:22:28;;;;;;;3.95;1.55;;;;;;;;;;5014532;28;19931;-70
2023/08/14 19:24:54;;;;;;;6.97;1.70;;;;;;;;;;5026076;28;20061;-70
2023/08/14 19:27:21;;;;;;;8.65;1.40;;;;;;;;;;5029424;28;20064;-70
2023/08/14 19:29:48;;;;;;;10.15;1.92;;;;;;;;;;5023302;28;20072;-67
2023/08/14 19:32:17;;;;;;;15.13;6.10;;;;;;;;;;5000707;28;20053;-67
2023/08/14 19:34:45;;;;;;;16.17;8.30;;;;;;;;;;5025783;28;20071;-68
2023/08/14 19:37:14;;;;;;;;;;;;;;;;;;5006511;28;20049;-68
2023/08/14 19:39:41;;;;;;;10.10;2.47;;;;;;;;;;5020751;28;19948;-68
2023/08/14 19:42:07;;;;;;;6.43;1.75;;;;;;;;;;5007394;28;20113;-68
2023/08/14 19:44:34;;;;;;;10.73;1.80;;;;;;;;;;5020639;28;20063;-69
2023/08/14 19:47:01;;;;;;;7.10;1.70;;;;;;;;;;5006890;28;20140;-68
2023/08/14 19:49:27;;;;;;;4.32;1.95;;;;;;;;;;5004259;28;20086;-67
2023/08/14 19:51:56;;;;;;;6.50;1.67;;;;;;;;;;5002197;28;20056;-68
2023/08/14 19:54:23;;;;;;;;;;;;;;;;;;4976139;28;20081;-70
2023/08/14 19:56:50;;;;;;;61.38;37.25;;;;;;;;;;4997591;28;19929;-67
2023/08/14 19:59:16;;;;;;;24.58;11.48;;;;;;;;;;4979691;28;20168;-68
2023/08/14 20:01:43;;;;;;;25.40;14.10;;;;;;;;;;4996297;28;20062;-68
2023/08/14 20:04:10;;;;;;;35.00;18.40;;;;;;;;;;5003422;28;20065;-69
2023/08/14 20:06:38;;;;;;;97.57;57.42;;;;;;;;;;4995543;28;20057;-68
2023/08/14 20:09:07;;;;;;;17.88;9.02;;;;;;;;;;4982212;28;20057;-67
2023/08/14 20:11:34;;;;;;;5.40;2.42;;;;;;;;;;4976583;28;20053;-67
2023/08/14 20:14:00;;;;;;;5.20;1.70;;;;;;;;;;5001967;28;20086;-67
2023/08/14 20:16:27;;;;;;;6.25;1.70;;;;;;;;;;4983804;28;20061;-68
2023/08/14 20:18:54;;;;;;;6.55;2.25;;;;;;;;;;5000156;28;20057;-68
2023/08/14 20:21:21;;;;;;;6.80;2.17;;;;;;;;;;4983249;28;20050;-68
2023/08/14 20:23:48;;;;;;;9.98;1.55;;;;;;;;;;5001332;28;20062;-67
2023/08/14 20:26:16;;;;;;;6.93;2.10;;;;;;;;;;5001213;28;20258;-67
2023/08/14 20:28:43;;;;;;;;;;;;;;;;;;4981840;28;20064;-68
2023/08/14 20:31:17;;;;;;;7.75;2.40;;;;;;;;;;5000717;28;19929;-68
2023/08/14 20:33:44;;;;;;;5.60;1.95;;;;;;;;;;4986050;28;20058;-68
2023/08/14 20:36:11;;;;;;;4.60;1.65;;;;;;;;;;5004725;28;20052;-68
2023/08/14 20:38:38;;;;;;;6.22;1.73;;;;;;;;;;4996334;28;20046;-69
2023/08/14 20:41:04;;;;;;;9.52;4.05;;;;;;;;;;4981304;28;20124;-68
2023/08/14 20:43:34;;;;;;;11.93;6.15;;;;;;;;;;4994244;28;20054;-68
2023/08/14 20:46:01;;;;;;;28.80;17.83;;;;;;;;;;4985657;28;20145;-69
2023/08/14 20:48:28;;;;;;;11.93;4.38;;;;;;;;;;4999756;28;20065;-69
2023/08/14 20:50:55;;;;;;;36.40;14.52;;;;;;;;;;4998885;28;20064;-68
2023/08/14 20:53:22;;;;;;;9.75;3.78;;;;;;;;;;5021844;28;20093;-68
2023/08/14 20:55:49;;;;;;;15.50;3.83;;;;;;;;;;5021867;28;20068;-67
2023/08/14 20:58:16;;;;;;;7.53;2.65;;;;;;;;;;4997446;28;20057;-68
2023/08/14 21:00:46;;;;;;;8.13;2.00;;;;;;;;;;5016420;28;20049;-68
2023/08/14 21:03:15;;;;;;;33.85;16.10;;;;;;;;;;5018272;28;20057;-68
2023/08/14 21:05:44;;;;;;;25.92;12.05;;;;;;;;;;5003011;28;20045;-66
2023/08/14 21:08:12;;;;;;;26.00;16.20;;;;;;;;;;5003415;28;20049;-67
2023/08/14 21:10:39;;;;;;;9.73;4.35;;;;;;;;;;4995529;28;20063;-68
2023/08/14 21:13:07;;;;;;;15.98;7.63;;;;;;;;;;5002595;28;20053;-66
2023/08/14 21:15:34;;;;;;;10.80;4.93;;;;;;;;;;5002662;28;20065;-66
2023/08/14 21:18:02;;;;;;;5.47;2.13;;;;;;;;;;5003749;28;20057;-67
2023/08/14 21:20:29;;;;;;;6.30;1.90;;;;;;;;;;4960346;28;20096;-66
2023/08/14 21:22:56;;;;;;;6.45;1.60;;;;;;;;;;5004398;28;20059;-67
2023/08/14 21:25:23;;;;;;;3.55;1.60;;;;;;;;;;5003146;28;20057;-67
2023/08/14 21:27:50;;;;;;;5.75;1.63;;;;;;;;;;5019807;28;20085;-67
2023/08/14 21:30:17;;;;;;;5.00;1.70;;;;;;;;;;4999908;28;20084;-68
2023/08/14 21:32:45;;;;;;;6.88;1.83;;;;;;;;;;5019196;28;20068;-67
2023/08/14 21:35:14;;;;;;;5.80;1.88;;;;;;;;;;5006765;28;20052;-67
2023/08/14 21:37:40;;;;;;;;;;;;;;;;;;5020765;28;20061;-67
2023/08/14 21:40:08;;;;;;;5.47;1.50;;;;;;;;;;5014967;28;19929;-67
2023/08/14 21:42:35;;;;;;;5.85;1.75;;;;;;;;;;4999772;28;20049;-67
2023/08/14 21:45:02;;;;;;;4.78;1.95;;;;;;;;;;5021135;28;20129;-67
2023/08/14 21:47:29;;;;;;;3.90;1.52;;;;;;;;;;5021986;28;20053;-66
2023/08/14 21:50:01;;;;;;;5.82;2.05;;;;;;;;;;4995485;28;20058;-67
2023/08/14 21:52:30;;;;;;;5.30;1.75;;;;;;;;;;5016730;28;20133;-66
2023/08/14 21:54:56;;;;;;;13.18;5.20;;;;;;;;;;5003736;28;20172;-67
2023/08/14 21:57:26;;;;;;;37.95;20.60;;;;;;;;;;5002866;28;20045;-70
2023/08/14 21:59:53;;;;;;;80.82;44.80;;;;;;;;;;5019396;28;20080;-68
2023/08/14 22:02:22;;;;;;;33.50;17.95;;;;;;;;;;4996792;28;20058;-67
2023/08/14 22:04:49;;;;;;;13.02;5.80;;;;;;;;;;5004919;28;20065;-66
2023/08/14 22:07:15;;;;;;;11.43;4.57;;;;;;;;;;5019802;28;20148;-68
2023/08/14 22:09:44;;;;;;;11.23;5.03;;;;;;;;;;5019049;28;20114;-67
2023/08/14 22:12:11;;;;;;;;;;;;;;;;;;5002244;28;20053;-69
2023/08/14 22:14:38;;;;;;;6.97;1.65;;;;;;;;;;5015396;28;19929;-67
2023/08/14 22:17:05;;;;;;;7.60;2.10;;;;;;;;;;5005589;28;20162;-67
2023/08/14 22:19:32;;;;;;;4.32;1.75;;;;;;;;;;5000952;28;20049;-67
2023/08/14 22:22:00;;;;;;;8.27;2.00;;;;;;;;;;5035058;28;20052;-67
2023/08/14 22:24:29;;;;;;;6.00;2.00;;;;;;;;;;5019700;28;20061;-68
2023/08/14 22:26:58;;;;;;;5.32;2.05;;;;;;;;;;5005362;28;20049;-68
2023/08/14 22:29:24;;;;;;;5.95;1.92;;;;;;;;;;4998206;28;20057;-68
2023/08/14 22:31:51;;;;;;;3.28;1.55;;;;;;;;;;5021924;28;20057;-68
2023/08/14 22:34:18;;;;;;;6.35;1.90;;;;;;;;;;5012633;28;20096;-69
2023/08/14 22:36:45;;;;;;;6.15;1.88;;;;;;;;;;5003070;28;20053;-67
2023/08/14 22:39:12;;;;;;;7.55;1.98;;;;;;;;;;4997913;28;20076;-67
2023/08/14 22:41:39;;;;;;;4.95;1.90;;;;;;;;;;5017054;28;20060;-67
2023/08/14 22:44:09;;;;;;;6.53;2.17;;;;;;;;;;5004222;28;20064;-67
2023/08/14 22:46:36;;;;;;;4.10;1.65;;;;;;;;;;4999908;28;22062;-68
2023/08/14 22:49:03;;;;;;;4.70;1.90;;;;;;;;;;5000788;28;20062;-67
2023/08/14 22:51:31;;;;;;;5.40;1.80;;;;;;;;;;5005888;28;20144;-68
2023/08/14 22:53:58;;;;;;;10.13;4.03;;;;;;;;;;5017873;28;20072;-67
2023/08/14 22:56:25;;;;;;;11.45;5.05;;;;;;;;;;5015552;28;20069;-67
2023/08/14 22:58:51;;;;;;;24.40;10.32;;;;;;;;;;4999863;28;20103;-69
2023/08/14 23:03:23;;;;;;;8.32;3.08;;;;;;;;;;5108293;27;20137;-68
2023/08/14 23:05:50;;;;;;;4.10;2.10;;;;;;;;;;5076513;28;20113;-68
2023/08/14 23:08:27;;;;;;;;;;;;;;;;;;;;;
2023/08/14 23:10:54;;;;;;;5.57;1.73;;;;;;;;;;5042641;28;20066;-68
2023/08/14 23:13:22;;;;;;;6.93;1.90;;;;;;;;;;5026970;28;20054;-68
2023/08/14 23:15:49;;;;;;;;;;;;;;;;;;5039294;28;20064;-68
2023/08/14 23:18:16;;;;;;;7.25;1.80;;;;;;;;;;5032048;28;19983;-68
2023/08/14 23:20:44;;;;;;;11.07;2.28;;;;;;;;;;5025633;28;20064;-68
2023/08/14 23:23:10;;;;;;;;;;;;;;;;;;5043600;28;20052;-68
2023/08/14 23:25:37;;;;;;;4.60;1.55;;;;;;;;;;5037544;28;19924;-68
2023/08/14 23:28:05;;;;;;;7.18;2.20;;;;;;;;;;5038276;28;20056;-67
2023/08/14 23:30:36;;;;;;;4.65;2.20;;;;;;;;;;5022440;28;20118;-68
2023/08/14 23:33:03;;;;;;;8.18;2.00;;;;;;;;;;5035850;28;20050;-68
2023/08/14 23:35:30;;;;;;;7.93;2.88;;;;;;;;;;5036723;28;20058;-69
2023/08/14 23:37:58;;;;;;;5.53;2.50;;;;;;;;;;5039702;28;20056;-68
2023/08/14 23:40:27;;;;;;;9.80;2.63;;;;;;;;;;5018676;28;20694;-68
2023/08/14 23:42:54;;;;;;;8.90;3.47;;;;;;;;;;5038801;28;20099;-68
2023/08/14 23:45:21;;;;;;;8.68;2.72;;;;;;;;;;5048202;28;20063;-69
2023/08/14 23:47:47;;;;;;;9.20;2.72;;;;;;;;;;5037214;28;20059;-68
2023/08/14 23:50:15;;;;;;;6.95;2.38;;;;;;;;;;5021836;28;20049;-69
2023/08/14 23:52:42;;;;;;;5.37;2.30;;;;;;;;;;5038461;28;20051;-68
2023/08/14 23:55:15;;;;;;;7.32;2.72;;;;;;;;;;5027597;28;20357;-68
2023/08/14 23:57:42;;;;;;;6.32;2.50;;;;;;;;;;5017354;28;20053;-67
